sensor_id;sensor_type;location;lat;lon;timestamp;pressure;altitude;pressure_sealevel;temperature;humidity
6853;BME280;3465;42.144;24.722;2023-05-22T00:01:00;147061.91;;;16.57;100.00
6853;BME280;3465;42.144;24.722;2023-05-22T00:03:27;147058.13;;;16.56;100.00
6853;BME280;3465;42.144;24.722;2023-05-22T00:05:53;147055.63;;;16.55;100.00
6853;BME280;3465;42.144;24.722;2023-05-22T00:08:24;147040.53;;;16.49;100.00
6853;BME280;3465;42.144;24.722;2023-05-22T00:10:49;147046.81;;;16.51;100.00
6853;BME280;3465;42.144;24.722;2023-05-22T00:13:14;147049.31;;;16.52;100.00
6853;BME280;3465;42.144;24.722;2023-05-22T00:15:40;147046.81;;;16.51;100.00
6853;BME280;3465;42.144;24.722;2023-05-22T00:18:05;147054.38;;;16.54;100.00
6853;BME280;3465;42.144;24.722;2023-05-22T00:20:32;147007.78;;;16.36;100.00
6853;BME280;3465;42.144;24.722;2023-05-22T00:23:05;147041.78;;;16.49;100.00
6853;BME280;3465;42.144;24.722;2023-05-22T00:25:35;147068.22;;;16.60;100.00
6853;BME280;3465;42.144;24.722;2023-05-22T00:28:00;147064.47;;;16.58;100.00
6853;BME280;3465;42.144;24.722;2023-05-22T00:30:26;147066.97;;;16.59;100.00
6853;BME280;3465;42.144;24.722;2023-05-22T00:32:51;147077.06;;;16.63;100.00
6853;BME280;3465;42.144;24.722;2023-05-22T00:35:17;147063.19;;;16.58;100.00
6853;BME280;3465;42.144;24.722;2023-05-22T00:37:42;147073.28;;;16.62;100.00
6853;BME280;3465;42.144;24.722;2023-05-22T00:40:11;147075.78;;;16.63;100.00
6853;BME280;3465;42.144;24.722;2023-05-22T00:42:37;147060.69;;;16.57;100.00
6853;BME280;3465;42.144;24.722;2023-05-22T00:45:03;147055.63;;;16.55;100.00
6853;BME280;3465;42.144;24.722;2023-05-22T00:47:29;147045.53;;;16.51;100.00
6853;BME280;3465;42.144;24.722;2023-05-22T00:49:54;147043.03;;;16.50;100.00
6853;BME280;3465;42.144;24.722;2023-05-22T00:52:20;147045.53;;;16.51;100.00
6853;BME280;3465;42.144;24.722;2023-05-22T00:54:46;147039.28;;;16.48;100.00
6853;BME280;3465;42.144;24.722;2023-05-22T00:57:12;147043.03;;;16.50;100.00
6853;BME280;3465;42.144;24.722;2023-05-22T00:59:38;147035.50;;;16.47;100.00
6853;BME280;3465;42.144;24.722;2023-05-22T01:02:04;147016.59;;;16.39;100.00
6853;BME280;3465;42.144;24.722;2023-05-22T01:04:29;147027.91;;;16.44;100.00
6853;BME280;3465;42.144;24.722;2023-05-22T01:06:57;147027.91;;;16.44;100.00
6853;BME280;3465;42.144;24.722;2023-05-22T01:09:23;147029.13;;;16.44;100.00
6853;BME280;3465;42.144;24.722;2023-05-22T01:14:44;147019.09;;;16.40;100.00
6853;BME280;3465;42.144;24.722;2023-05-22T01:19:51;146998.94;;;16.32;100.00
6853;BME280;3465;42.144;24.722;2023-05-22T01:22:36;147022.88;;;16.42;100.00
6853;BME280;3465;42.144;24.722;2023-05-22T01:25:18;147043.03;;;16.50;100.00
6853;BME280;3465;42.144;24.722;2023-05-22T01:30:51;147019.09;;;16.40;100.00
6853;BME280;3465;42.144;24.722;2023-05-22T01:33:20;146996.44;;;16.31;100.00
6853;BME280;3465;42.144;24.722;2023-05-22T01:35:50;146961.19;;;16.17;100.00
6853;BME280;3465;42.144;24.722;2023-05-22T01:38:20;146975.03;;;16.23;100.00
6853;BME280;3465;42.144;24.722;2023-05-22T01:40:46;146968.72;;;16.20;100.00
6853;BME280;3465;42.144;24.722;2023-05-22T01:43:13;146983.88;;;16.26;100.00
6853;BME280;3465;42.144;24.722;2023-05-22T01:45:38;146982.59;;;16.26;100.00
6853;BME280;3465;42.144;24.722;2023-05-22T01:48:04;146958.69;;;16.16;100.00
6853;BME280;3465;42.144;24.722;2023-05-22T01:50:30;146982.59;;;16.26;100.00
6853;BME280;3465;42.144;24.722;2023-05-22T01:53:14;146983.88;;;16.26;100.00
6853;BME280;3465;42.144;24.722;2023-05-22T01:55:51;146964.94;;;16.19;100.00
6853;BME280;3465;42.144;24.722;2023-05-22T02:00:55;146941.06;;;16.09;100.00
6853;BME280;3465;42.144;24.722;2023-05-22T02:03:31;146954.91;;;16.15;100.00
6853;BME280;3465;42.144;24.722;2023-05-22T02:06:01;146947.38;;;16.12;100.00
6853;BME280;3465;42.144;24.722;2023-05-22T02:08:30;146915.94;;;15.99;100.00
6853;BME280;3465;42.144;24.722;2023-05-22T02:10:56;146927.22;;;16.04;100.00
6853;BME280;3465;42.144;24.722;2023-05-22T02:13:22;146909.59;;;15.97;100.00
6853;BME280;3465;42.144;24.722;2023-05-22T02:15:48;146902.06;;;15.94;100.00
6853;BME280;3465;42.144;24.722;2023-05-22T02:18:14;146914.66;;;15.99;100.00
6853;BME280;3465;42.144;24.722;2023-05-22T02:20:40;146923.47;;;16.02;100.00
6853;BME280;3465;42.144;24.722;2023-05-22T02:23:06;146927.22;;;16.04;100.00
6853;BME280;3465;42.144;24.722;2023-05-22T02:25:32;146915.94;;;15.99;100.00
6853;BME280;3465;42.144;24.722;2023-05-22T02:27:57;146931.00;;;16.05;100.00
6853;BME280;3465;42.144;24.722;2023-05-22T02:30:23;146937.28;;;16.08;100.00
6853;BME280;3465;42.144;24.722;2023-05-22T02:32:48;146936.06;;;16.07;100.00
6853;BME280;3465;42.144;24.722;2023-05-22T02:35:14;146929.72;;;16.05;100.00
6853;BME280;3465;42.144;24.722;2023-05-22T02:37:39;146933.50;;;16.06;100.00
6853;BME280;3465;42.144;24.722;2023-05-22T02:40:05;146944.81;;;16.11;100.00
6853;BME280;3465;42.144;24.722;2023-05-22T02:42:31;146912.16;;;15.98;100.00
6853;BME280;3465;42.144;24.722;2023-05-22T02:44:56;146923.47;;;16.02;100.00
6853;BME280;3465;42.144;24.722;2023-05-22T02:47:21;146937.28;;;16.08;100.00
6853;BME280;3465;42.144;24.722;2023-05-22T02:49:47;146905.84;;;15.95;100.00
6853;BME280;3465;42.144;24.722;2023-05-22T02:52:12;146925.97;;;16.03;100.00
6853;BME280;3465;42.144;24.722;2023-05-22T02:54:38;146927.22;;;16.04;100.00
6853;BME280;3465;42.144;24.722;2023-05-22T02:57:03;146918.41;;;16.00;100.00
6853;BME280;3465;42.144;24.722;2023-05-22T02:59:29;146918.41;;;16.00;100.00
6853;BME280;3465;42.144;24.722;2023-05-22T03:01:55;146925.97;;;16.03;100.00
6853;BME280;3465;42.144;24.722;2023-05-22T03:04:21;146927.22;;;16.04;100.00
6853;BME280;3465;42.144;24.722;2023-05-22T03:06:46;146920.91;;;16.01;100.00
6853;BME280;3465;42.144;24.722;2023-05-22T03:09:12;146917.16;;;16.00;100.00
6853;BME280;3465;42.144;24.722;2023-05-22T03:11:37;146907.09;;;15.96;100.00
6853;BME280;3465;42.144;24.722;2023-05-22T03:14:03;146915.94;;;15.99;100.00
6853;BME280;3465;42.144;24.722;2023-05-22T03:16:28;146907.09;;;15.96;100.00
6853;BME280;3465;42.144;24.722;2023-05-22T03:19:10;146907.09;;;15.96;100.00
6853;BME280;3465;42.144;24.722;2023-05-22T03:21:36;146914.66;;;15.99;100.00
6853;BME280;3465;42.144;24.722;2023-05-22T03:24:02;146884.44;;;15.87;100.00
6853;BME280;3465;42.144;24.722;2023-05-22T03:26:27;146866.84;;;15.80;100.00
6853;BME280;3465;42.144;24.722;2023-05-22T03:28:54;146924.69;;;16.03;100.00
6853;BME280;3465;42.144;24.722;2023-05-22T03:31:20;146858.03;;;15.76;100.00
6853;BME280;3465;42.144;24.722;2023-05-22T03:33:45;146927.22;;;16.04;100.00
6853;BME280;3465;42.144;24.722;2023-05-22T03:36:10;146923.47;;;16.02;100.00
6853;BME280;3465;42.144;24.722;2023-05-22T03:38:36;146905.84;;;15.95;100.00
6853;BME280;3465;42.144;24.722;2023-05-22T03:41:01;146952.41;;;16.14;100.00
6853;BME280;3465;42.144;24.722;2023-05-22T03:43:27;146962.47;;;16.18;100.00
6853;BME280;3465;42.144;24.722;2023-05-22T03:45:52;146975.03;;;16.23;100.00
6853;BME280;3465;42.144;24.722;2023-05-22T03:48:17;146980.09;;;16.25;100.00
6853;BME280;3465;42.144;24.722;2023-05-22T03:50:43;146982.59;;;16.26;100.00
6853;BME280;3465;42.144;24.722;2023-05-22T03:53:08;146988.84;;;16.28;100.00
6853;BME280;3465;42.144;24.722;2023-05-22T03:55:33;146985.09;;;16.27;100.00
6853;BME280;3465;42.144;24.722;2023-05-22T03:57:59;146987.63;;;16.28;100.00
6853;BME280;3465;42.144;24.722;2023-05-22T04:00:24;146992.69;;;16.30;100.00
6853;BME280;3465;42.144;24.722;2023-05-22T04:02:50;147000.22;;;16.33;100.00
6853;BME280;3465;42.144;24.722;2023-05-22T04:05:15;146988.84;;;16.28;100.00
6853;BME280;3465;42.144;24.722;2023-05-22T04:07:41;146993.91;;;16.30;100.00
6853;BME280;3465;42.144;24.722;2023-05-22T04:10:06;147001.44;;;16.33;100.00
6853;BME280;3465;42.144;24.722;2023-05-22T04:12:32;147010.28;;;16.37;100.00
6853;BME280;3465;42.144;24.722;2023-05-22T04:14:57;147030.44;;;16.45;100.00
6853;BME280;3465;42.144;24.722;2023-05-22T04:17:25;147035.50;;;16.47;100.00
6853;BME280;3465;42.144;24.722;2023-05-22T04:19:54;147010.28;;;16.37;100.00
6853;BME280;3465;42.144;24.722;2023-05-22T04:22:22;147011.53;;;16.37;100.00
6853;BME280;3465;42.144;24.722;2023-05-22T04:24:47;147036.78;;;16.47;100.00
6853;BME280;3465;42.144;24.722;2023-05-22T04:27:13;147024.13;;;16.42;100.00
6853;BME280;3465;42.144;24.722;2023-05-22T04:29:39;147060.69;;;16.57;100.00
6853;BME280;3465;42.144;24.722;2023-05-22T04:32:06;147078.28;;;16.64;100.00
6853;BME280;3465;42.144;24.722;2023-05-22T04:34:35;147122.34;;;16.81;100.00
6853;BME280;3465;42.144;24.722;2023-05-22T04:37:02;147134.94;;;16.86;100.00
6853;BME280;3465;42.144;24.722;2023-05-22T04:39:28;147131.16;;;16.85;100.00
6853;BME280;3465;42.144;24.722;2023-05-22T04:41:53;147170.19;;;17.00;100.00
6853;BME280;3465;42.144;24.722;2023-05-22T04:44:19;147166.41;;;16.99;100.00
6853;BME280;3465;42.144;24.722;2023-05-22T04:46:48;147112.28;;;16.77;100.00
6853;BME280;3465;42.144;24.722;2023-05-22T04:49:14;147124.88;;;16.82;100.00
6853;BME280;3465;42.144;24.722;2023-05-22T04:51:39;147132.44;;;16.85;100.00
6853;BME280;3465;42.144;24.722;2023-05-22T04:54:05;147139.97;;;16.88;100.00
6853;BME280;3465;42.144;24.722;2023-05-22T04:56:30;147123.63;;;16.82;100.00
6853;BME280;3465;42.144;24.722;2023-05-22T04:58:56;147033.00;;;16.46;100.00
6853;BME280;3465;42.144;24.722;2023-05-22T05:01:21;147180.28;;;17.04;100.00
6853;BME280;3465;42.144;24.722;2023-05-22T05:03:47;147196.66;;;17.11;100.00
6853;BME280;3465;42.144;24.722;2023-05-22T05:06:13;147258.38;;;17.36;100.00
6853;BME280;3465;42.144;24.722;2023-05-22T05:08:38;147289.91;;;17.48;100.00
6853;BME280;3465;42.144;24.722;2023-05-22T05:11:04;147340.28;;;17.68;100.00
6853;BME280;3465;42.144;24.722;2023-05-22T05:13:29;147342.81;;;17.69;100.00
6853;BME280;3465;42.144;24.722;2023-05-22T05:15:57;147331.44;;;17.65;100.00
6853;BME280;3465;42.144;24.722;2023-05-22T05:18:23;147288.63;;;17.48;100.00
6853;BME280;3465;42.144;24.722;2023-05-22T05:20:48;147299.94;;;17.52;100.00
6853;BME280;3465;42.144;24.722;2023-05-22T05:23:13;147294.94;;;17.50;100.00
6853;BME280;3465;42.144;24.722;2023-05-22T05:25:39;147291.13;;;17.49;100.00
6853;BME280;3465;42.144;24.722;2023-05-22T05:28:05;147307.50;;;17.55;100.00
6853;BME280;3465;42.144;24.722;2023-05-22T05:30:37;147287.34;;;17.47;100.00
6853;BME280;3465;42.144;24.722;2023-05-22T05:33:02;147344.03;;;17.70;100.00
6853;BME280;3465;42.144;24.722;2023-05-22T05:35:28;147378.09;;;17.83;100.00
6853;BME280;3465;42.144;24.722;2023-05-22T05:37:53;147437.28;;;18.07;100.00
6853;BME280;3465;42.144;24.722;2023-05-22T05:40:18;147492.75;;;18.29;100.00
6853;BME280;3465;42.144;24.722;2023-05-22T05:42:44;147476.41;;;18.22;100.00
6853;BME280;3465;42.144;24.722;2023-05-22T05:45:10;147501.56;;;18.32;100.00
6853;BME280;3465;42.144;24.722;2023-05-22T05:47:35;147470.06;;;18.20;100.00
6853;BME280;3465;42.144;24.722;2023-05-22T05:50:01;147428.47;;;18.03;100.00
6853;BME280;3465;42.144;24.722;2023-05-22T05:52:26;147398.25;;;17.91;100.00
6853;BME280;3465;42.144;24.722;2023-05-22T05:54:56;147359.19;;;17.76;100.00
6853;BME280;3465;42.144;24.722;2023-05-22T05:57:22;147342.81;;;17.69;100.00
6853;BME280;3465;42.144;24.722;2023-05-22T05:59:47;147340.28;;;17.68;100.00
6853;BME280;3465;42.144;24.722;2023-05-22T06:02:13;147345.31;;;17.70;100.00
6853;BME280;3465;42.144;24.722;2023-05-22T06:04:38;147402.03;;;17.93;100.00
6853;BME280;3465;42.144;24.722;2023-05-22T06:07:03;147473.84;;;18.21;100.00
6853;BME280;3465;42.144;24.722;2023-05-22T06:09:29;147605.03;;;18.74;100.00
6853;BME280;3465;42.144;24.722;2023-05-22T06:11:54;147724.81;;;19.21;100.00
6853;BME280;3465;42.144;24.722;2023-05-22T06:14:20;147795.50;;;19.49;100.00
6853;BME280;3465;42.144;24.722;2023-05-22T06:16:45;147832.09;;;19.64;100.00
6853;BME280;3465;42.144;24.722;2023-05-22T06:19:11;147877.53;;;19.82;100.00
6853;BME280;3465;42.144;24.722;2023-05-22T06:21:36;147984.91;;;20.25;100.00
6853;BME280;3465;42.144;24.722;2023-05-22T06:24:02;148007.59;;;20.34;100.00
6853;BME280;3465;42.144;24.722;2023-05-22T06:26:27;148145.25;;;20.88;100.00
6853;BME280;3465;42.144;24.722;2023-05-22T06:28:53;148231.22;;;21.22;100.00
6853;BME280;3465;42.144;24.722;2023-05-22T06:31:20;148318.38;;;21.57;100.00
6853;BME280;3465;42.144;24.722;2023-05-22T06:33:46;148409.47;;;21.93;100.00
6853;BME280;3465;42.144;24.722;2023-05-22T06:36:12;148527.06;;;22.40;99.34
6853;BME280;3465;42.144;24.722;2023-05-22T06:38:37;148645.97;;;22.87;96.00
6853;BME280;3465;42.144;24.722;2023-05-22T06:41:04;148738.31;;;23.24;92.74
6853;BME280;3465;42.144;24.722;2023-05-22T06:43:29;148858.63;;;23.71;88.85
6853;BME280;3465;42.144;24.722;2023-05-22T06:45:55;148929.53;;;23.99;87.30
6853;BME280;3465;42.144;24.722;2023-05-22T06:48:20;149143.63;;;24.84;82.37
6853;BME280;3465;42.144;24.722;2023-05-22T06:50:46;149304.63;;;25.48;80.01
6853;BME280;3465;42.144;24.722;2023-05-22T06:53:11;149461.88;;;26.10;74.24
6853;BME280;3465;42.144;24.722;2023-05-22T06:55:37;149601.47;;;26.65;72.06
6853;BME280;3465;42.144;24.722;2023-05-22T06:58:02;149752.41;;;27.25;69.37
6853;BME280;3465;42.144;24.722;2023-05-22T07:00:28;150011.53;;;28.28;67.70
6853;BME280;3465;42.144;24.722;2023-05-22T07:02:53;150259.38;;;29.25;61.73
6853;BME280;3465;42.144;24.722;2023-05-22T07:05:18;150455.22;;;30.03;57.77
6853;BME280;3465;42.144;24.722;2023-05-22T07:07:44;150535.34;;;30.34;56.73
6853;BME280;3465;42.144;24.722;2023-05-22T07:10:09;150724.94;;;31.09;53.30
6853;BME280;3465;42.144;24.722;2023-05-22T07:12:35;150843.34;;;31.56;51.82
6853;BME280;3465;42.144;24.722;2023-05-22T07:15:00;150963.09;;;32.03;48.18
6853;BME280;3465;42.144;24.722;2023-05-22T07:17:26;150923.63;;;31.87;44.89
6853;BME280;3465;42.144;24.722;2023-05-22T07:19:51;150928.69;;;31.89;45.56
6853;BME280;3465;42.144;24.722;2023-05-22T07:22:17;150996.22;;;32.16;44.50
6853;BME280;3465;42.144;24.722;2023-05-22T07:24:42;150434.84;;;29.95;45.17
6853;BME280;3465;42.144;24.722;2023-05-22T07:27:08;150185.63;;;28.96;44.59
6853;BME280;3465;42.144;24.722;2023-05-22T07:29:34;150057.22;;;28.46;47.47
6853;BME280;3465;42.144;24.722;2023-05-22T07:31:59;149973.44;;;28.13;47.73
6853;BME280;3465;42.144;24.722;2023-05-22T07:34:25;150011.53;;;28.28;49.43
6853;BME280;3465;42.144;24.722;2023-05-22T07:36:57;149789.28;;;27.40;50.84
6853;BME280;3465;42.144;24.722;2023-05-22T07:39:23;149878.13;;;27.75;49.99
6853;BME280;3465;42.144;24.722;2023-05-22T07:41:48;150103.03;;;28.64;50.14
6853;BME280;3465;42.144;24.722;2023-05-22T07:44:18;149963.25;;;28.08;47.50
6853;BME280;3465;42.144;24.722;2023-05-22T07:46:44;149993.75;;;28.21;46.34
6853;BME280;3465;42.144;24.722;2023-05-22T07:49:10;150001.34;;;28.24;47.14
6853;BME280;3465;42.144;24.722;2023-05-22T07:51:35;149992.47;;;28.20;45.81
6853;BME280;3465;42.144;24.722;2023-05-22T07:54:01;149860.38;;;27.68;46.91
6853;BME280;3465;42.144;24.722;2023-05-22T07:56:26;149685.19;;;26.99;48.11
6853;BME280;3465;42.144;24.722;2023-05-22T07:58:52;149506.25;;;26.28;50.26
6853;BME280;3465;42.144;24.722;2023-05-22T08:01:18;149446.66;;;26.04;51.50
6853;BME280;3465;42.144;24.722;2023-05-22T08:03:43;149550.66;;;26.45;52.89
6853;BME280;3465;42.144;24.722;2023-05-22T08:06:09;149738.47;;;27.20;48.48
6853;BME280;3465;42.144;24.722;2023-05-22T08:08:34;149992.47;;;28.20;45.95
6853;BME280;3465;42.144;24.722;2023-05-22T08:11:00;149864.19;;;27.69;46.86
6853;BME280;3465;42.144;24.722;2023-05-22T08:13:26;149659.78;;;26.89;48.98
6853;BME280;3465;42.144;24.722;2023-05-22T08:15:51;149441.59;;;26.02;50.73
6853;BME280;3465;42.144;24.722;2023-05-22T08:18:16;149469.47;;;26.13;52.44
6853;BME280;3465;42.144;24.722;2023-05-22T08:20:42;149576.03;;;26.55;51.45
6853;BME280;3465;42.144;24.722;2023-05-22T08:23:07;149520.22;;;26.33;50.55
6853;BME280;3465;42.144;24.722;2023-05-22T08:25:33;149556.97;;;26.48;49.88
6853;BME280;3465;42.144;24.722;2023-05-22T08:27:58;149705.47;;;27.07;50.85
6853;BME280;3465;42.144;24.722;2023-05-22T08:30:23;150089.06;;;28.58;47.08
6853;BME280;3465;42.144;24.722;2023-05-22T08:32:49;150345.78;;;29.60;42.56
6853;BME280;3465;42.144;24.722;2023-05-22T08:35:15;150317.81;;;29.49;41.36
6853;BME280;3465;42.144;24.722;2023-05-22T08:37:40;150495.91;;;30.19;39.60
6853;BME280;3465;42.144;24.722;2023-05-22T08:40:09;150766.94;;;31.26;38.40
6853;BME280;3465;42.144;24.722;2023-05-22T08:42:36;150551.91;;;30.41;39.35
6853;BME280;3465;42.144;24.722;2023-05-22T08:45:03;150596.41;;;30.58;38.45
6853;BME280;3465;42.144;24.722;2023-05-22T08:47:29;150569.66;;;30.48;39.29
6853;BME280;3465;42.144;24.722;2023-05-22T08:49:58;150745.31;;;31.17;38.72
6853;BME280;3465;42.144;24.722;2023-05-22T08:52:32;151045.88;;;32.36;36.29
6853;BME280;3465;42.144;24.722;2023-05-22T08:55:01;151121.06;;;32.65;34.59
6853;BME280;3465;42.144;24.722;2023-05-22T08:57:28;150754.22;;;31.21;36.74
6853;BME280;3465;42.144;24.722;2023-05-22T08:59:53;150497.13;;;30.19;39.19
6853;BME280;3465;42.144;24.722;2023-05-22T09:02:19;150731.34;;;31.12;38.59
6853;BME280;3465;42.144;24.722;2023-05-22T09:04:44;150877.75;;;31.69;37.06
6853;BME280;3465;42.144;24.722;2023-05-22T09:07:10;151240.88;;;33.12;35.73
6853;BME280;3465;42.144;24.722;2023-05-22T09:09:37;151492.06;;;34.11;32.88
6853;BME280;3465;42.144;24.722;2023-05-22T09:12:05;151337.78;;;33.51;33.81
6853;BME280;3465;42.144;24.722;2023-05-22T09:14:37;151168.22;;;32.84;34.63
6853;BME280;3465;42.144;24.722;2023-05-22T09:17:04;150854.81;;;31.60;35.87
6853;BME280;3465;42.144;24.722;2023-05-22T09:19:29;150661.34;;;30.84;37.71
6853;BME280;3465;42.144;24.722;2023-05-22T09:22:01;150667.69;;;30.87;37.74
6853;BME280;3465;42.144;24.722;2023-05-22T09:24:27;150417.03;;;29.88;38.94
6853;BME280;3465;42.144;24.722;2023-05-22T09:26:52;149955.63;;;28.05;42.10
6853;BME280;3465;42.144;24.722;2023-05-22T09:29:18;149704.19;;;27.06;45.19
6853;BME280;3465;42.144;24.722;2023-05-22T09:31:43;149847.69;;;27.63;45.49
6853;BME280;3465;42.144;24.722;2023-05-22T09:34:09;149739.72;;;27.20;45.02
6853;BME280;3465;42.144;24.722;2023-05-22T09:36:35;149716.91;;;27.11;45.81
6853;BME280;3465;42.144;24.722;2023-05-22T09:39:02;149771.53;;;27.33;45.51
6853;BME280;3465;42.144;24.722;2023-05-22T09:41:28;149817.19;;;27.51;43.82
6853;BME280;3465;42.144;24.722;2023-05-22T09:43:56;149803.25;;;27.45;43.59
6853;BME280;3465;42.144;24.722;2023-05-22T09:46:21;149743.56;;;27.22;44.93
6853;BME280;3465;42.144;24.722;2023-05-22T09:48:53;150063.66;;;28.48;43.60
6853;BME280;3465;42.144;24.722;2023-05-22T09:51:22;149871.78;;;27.72;42.29
6853;BME280;3465;42.144;24.722;2023-05-22T09:54:02;149908.63;;;27.87;41.24
6853;BME280;3465;42.144;24.722;2023-05-22T09:56:30;150203.38;;;29.03;40.03
6853;BME280;3465;42.144;24.722;2023-05-22T09:58:56;150406.84;;;29.84;39.36
6853;BME280;3465;42.144;24.722;2023-05-22T10:01:24;150354.69;;;29.63;40.28
6853;BME280;3465;42.144;24.722;2023-05-22T10:03:51;150284.75;;;29.35;40.75
6853;BME280;3465;42.144;24.722;2023-05-22T10:06:20;150036.91;;;28.38;42.18
6853;BME280;3465;42.144;24.722;2023-05-22T10:08:50;150317.81;;;29.49;38.73
6853;BME280;3465;42.144;24.722;2023-05-22T10:11:18;150516.31;;;30.27;37.09
6853;BME280;3465;42.144;24.722;2023-05-22T10:13:45;150675.31;;;30.90;35.27
6853;BME280;3465;42.144;24.722;2023-05-22T10:16:14;150506.09;;;30.23;36.23
6853;BME280;3465;42.144;24.722;2023-05-22T10:18:43;150255.56;;;29.24;39.24
6853;BME280;3465;42.144;24.722;2023-05-22T10:21:10;150094.13;;;28.60;39.08
6853;BME280;3465;42.144;24.722;2023-05-22T10:23:37;150144.97;;;28.80;38.87
6853;BME280;3465;42.144;24.722;2023-05-22T10:26:03;150432.28;;;29.94;38.28
6853;BME280;3465;42.144;24.722;2023-05-22T10:28:44;150450.09;;;30.01;34.28
6853;BME280;3465;42.144;24.722;2023-05-22T10:37:11;150394.16;;;29.79;36.44
6853;BME280;3465;42.144;24.722;2023-05-22T10:40:24;150526.44;;;30.31;35.33
6853;BME280;3465;42.144;24.722;2023-05-22T10:43:02;150707.16;;;31.02;34.72
6853;BME280;3465;42.144;24.722;2023-05-22T10:45:31;150919.78;;;31.86;34.42
6853;BME280;3465;42.144;24.722;2023-05-22T10:50:32;150801.38;;;31.39;34.03
6853;BME280;3465;42.144;24.722;2023-05-22T10:53:21;150607.84;;;30.63;34.44
6853;BME280;3465;42.144;24.722;2023-05-22T10:55:51;150887.91;;;31.73;33.66
6853;BME280;3465;42.144;24.722;2023-05-22T10:58:17;150938.91;;;31.93;33.24
6853;BME280;3465;42.144;24.722;2023-05-22T11:00:45;150952.88;;;31.99;32.00
6853;BME280;3465;42.144;24.722;2023-05-22T11:03:11;150797.53;;;31.38;33.49
6853;BME280;3465;42.144;24.722;2023-05-22T11:05:36;150740.25;;;31.15;34.18
6853;BME280;3465;42.144;24.722;2023-05-22T11:08:54;150931.28;;;31.90;33.64
6853;BME280;3465;42.144;24.722;2023-05-22T11:10:55;150823.00;;;31.48;33.46
6853;BME280;3465;42.144;24.722;2023-05-22T11:13:26;150933.81;;;31.91;32.98
6853;BME280;3465;42.144;24.722;2023-05-22T11:15:53;151031.84;;;32.30;31.31
6853;BME280;3465;42.144;24.722;2023-05-22T11:18:20;151117.22;;;32.64;30.81
6853;BME280;3465;42.144;24.722;2023-05-22T11:20:45;150969.44;;;32.05;32.23
6853;BME280;3465;42.144;24.722;2023-05-22T11:23:10;150964.38;;;32.03;31.77
6853;BME280;3465;42.144;24.722;2023-05-22T11:25:37;150498.41;;;30.20;33.63
6853;BME280;3465;42.144;24.722;2023-05-22T11:28:05;150061.03;;;28.47;36.36
6853;BME280;3465;42.144;24.722;2023-05-22T11:30:31;150085.22;;;28.57;37.24
6853;BME280;3465;42.144;24.722;2023-05-22T11:32:58;150166.53;;;28.89;36.05
6853;BME280;3465;42.144;24.722;2023-05-22T11:35:24;150134.78;;;28.76;36.41
6853;BME280;3465;42.144;24.722;2023-05-22T11:37:51;149948.00;;;28.02;37.23
6853;BME280;3465;42.144;24.722;2023-05-22T11:40:25;149788.03;;;27.39;38.50
6853;BME280;3465;42.144;24.722;2023-05-22T11:42:52;149894.63;;;27.81;38.72
6853;BME280;3465;42.144;24.722;2023-05-22T11:45:18;149753.69;;;27.26;37.64
6853;BME280;3465;42.144;24.722;2023-05-22T11:47:43;149620.47;;;26.73;40.38
6853;BME280;3465;42.144;24.722;2023-05-22T11:50:10;149379.41;;;25.78;51.41
6853;BME280;3465;42.144;24.722;2023-05-22T11:52:38;149117.03;;;24.74;60.15
6853;BME280;3465;42.144;24.722;2023-05-22T11:55:04;149052.38;;;24.48;63.02
6853;BME280;3465;42.144;24.722;2023-05-22T11:57:31;148996.69;;;24.26;65.95
6853;BME280;3465;42.144;24.722;2023-05-22T12:00:00;148902.94;;;23.89;77.08
6853;BME280;3465;42.144;24.722;2023-05-22T12:02:26;148757.38;;;23.31;76.97
6853;BME280;3465;42.144;24.722;2023-05-22T12:04:55;148676.34;;;22.99;84.43
6853;BME280;3465;42.144;24.722;2023-05-22T12:07:21;148685.16;;;23.03;82.86
6853;BME280;3465;42.144;24.722;2023-05-22T12:09:47;148667.47;;;22.96;88.76
6853;BME280;3465;42.144;24.722;2023-05-22T12:12:15;148657.34;;;22.92;92.25
6853;BME280;3465;42.144;24.722;2023-05-22T12:14:43;148681.38;;;23.01;87.76
6853;BME280;3465;42.144;24.722;2023-05-22T12:17:12;148749.78;;;23.28;85.77
6853;BME280;3465;42.144;24.722;2023-05-22T12:19:41;148832.00;;;23.61;89.57
6853;BME280;3465;42.144;24.722;2023-05-22T12:22:08;148864.94;;;23.74;90.89
6853;BME280;3465;42.144;24.722;2023-05-22T12:24:43;148937.13;;;24.02;88.02
6853;BME280;3465;42.144;24.722;2023-05-22T12:27:13;148928.25;;;23.99;81.44
6853;BME280;3465;42.144;24.722;2023-05-22T12:29:39;148906.72;;;23.90;86.14
6853;BME280;3465;42.144;24.722;2023-05-22T12:32:09;148883.91;;;23.81;83.36
6853;BME280;3465;42.144;24.722;2023-05-22T12:34:42;148813.03;;;23.53;89.10
6853;BME280;3465;42.144;24.722;2023-05-22T12:37:21;148806.69;;;23.51;88.02
6853;BME280;3465;42.144;24.722;2023-05-22T12:39:54;148797.88;;;23.47;87.08
6853;BME280;3465;42.144;24.722;2023-05-22T12:42:20;148704.19;;;23.10;84.72
6853;BME280;3465;42.144;24.722;2023-05-22T12:44:46;148585.25;;;22.63;86.37
6853;BME280;3465;42.144;24.722;2023-05-22T12:47:11;148554.88;;;22.51;90.79
6853;BME280;3465;42.144;24.722;2023-05-22T12:49:36;148623.22;;;22.78;87.79
6853;BME280;3465;42.144;24.722;2023-05-22T12:52:02;148519.41;;;22.37;88.26
6853;BME280;3465;42.144;24.722;2023-05-22T12:54:27;148514.41;;;22.35;90.04
6853;BME280;3465;42.144;24.722;2023-05-22T12:56:52;148467.59;;;22.16;93.78
6853;BME280;3465;42.144;24.722;2023-05-22T12:59:18;148442.28;;;22.06;92.10
6853;BME280;3465;42.144;24.722;2023-05-22T13:01:43;148480.25;;;22.21;89.79
6853;BME280;3465;42.144;24.722;2023-05-22T13:04:08;148516.91;;;22.36;92.30
6853;BME280;3465;42.144;24.722;2023-05-22T13:06:34;148573.88;;;22.58;93.55
6853;BME280;3465;42.144;24.722;2023-05-22T13:08:59;148620.66;;;22.77;90.36
6853;BME280;3465;42.144;24.722;2023-05-22T13:11:25;148648.53;;;22.88;92.21
6853;BME280;3465;42.144;24.722;2023-05-22T13:13:50;148605.47;;;22.71;93.00